KBDH

Willmar Municipal-John L Rice Field Airport

Willmar, Minnesota, USA
METAR KBDH 191215Z AUTO 13005KT 5SM CLR M01/M01 A2960 RMK AO2
Observed Flight Rules
Dec-19 @ 12:15 UTC (22 minutes ago) Marginal Visual Flight Rules
Wind Visibility Clouds
130° at 5 knots 5 miles
  • Clear skies
Temperatures Readings
Current -1°C / 30°F
Dewpoint -1°C / 30°F
Humidity 100%
Altimeter 29.6" Hg
Pressure 1002 hPa
Elevation 247
METAR KBDH 191215Z AUTO 13005KT 5SM CLR M01/M01 A2960 RMK AO2
Observed Flight Rules
Dec-19 @ 12:15 UTC
(22 minutes ago)
MVFR
Wind Visibility
130° at 5 knots 5 miles
Clouds
  • Clear skies
Temperature Dewpoint
-1°C / 30°F -1°C / 30°F
Humidity Altimeter Pressure
100% 29.6" Hg 1002 hPa